Main page
METAR-TAF:

METAR-TAF

Airports :

Granada, Spain

Base Aérea de Armilla

latitude: 37-08N, longitude: 003-38-08W, elevation: 700 m

Current weather observation

The report was made 10 hours and 52 minutes ago, at 17:00 UTC
Wind 8 kt from the South/Southwest
Temperature 27°C
Humidity 28%
Pressure 1020 hPa
Visibility 10 km or more
no clouds below 1500 m and no cumulonimbus

METAR: LEGA 191700Z 21008KT CAVOK 27/07 Q1020

Time: 05:52 (03:52 UTC)

Forecast

The report was made 13 hours and 52 minutes ago, at 14:00 UTC
Forecast valid from 19 at 15 UTC to 19 at 24 UTC
Wind 5 kt from the Southwest
Visibility 10 km or more
no clouds below 1500 m and no cumulonimbus
Becoming
from 19 at 15 UTC to 19 at 18 UTC
Wind 10 kt from the South

TAF: LEGA 191400Z 1915/1924 23005KT CAVOK BECMG 1915/1918 17010KT

Weather observations and forecasts of more than 4000 airports (METAR and TAF reports).

The available stations are represented by yellow and red dots on the map.

Hover mouse over dot to see the name of the station.

Then click to see weather observations and forecasts.

To change the map : click on the green buttons with a black cross to zoom in, on the green button with a dash to zoom out, or on the green arrows for adjacent maps.


METAR-TAF: